Time;durP1;ratioP1;P1;durP2;ratioP2;P2;SDS_P1;SDS_P2;PMS_P1;PMS_P2;Temp;Humidity;BMP_temperature;BMP_pressure;BME280_temperature;BME280_humidity;BME280_pressure;Samples;Min_cycle;Max_cycle;Signal;HPM_P1;HPM_P2
2024/02/11 16:24:38;;;;;;;;;5.75;5.75;;;;;;;;5063233;28;13460;-71
2024/02/11 16:27:03;;;;;;;;;7.50;7.00;;;;;;;;5067766;28;11460;-71
2024/02/11 16:29:29;;;;;;;;;8.75;8.25;;;;;;;;5067651;28;11498;-70
2024/02/11 16:31:54;;;;;;;;;5.25;5.25;;;;;;;;5067862;28;8781;-72
2024/02/11 16:34:19;;;;;;;;;7.25;6.00;;;;;;;;5066577;28;8829;-70
2024/02/11 16:36:44;;;;;;;;;7.00;7.00;;;;;;;;5067835;28;8793;-71
2024/02/11 16:39:10;;;;;;;;;5.50;3.25;;;;;;;;5041549;28;10301;-70
2024/02/11 16:41:41;;;;;;;;;8.00;6.00;;;;;;;;5036259;28;8804;-71
2024/02/11 16:44:09;;;;;;;;;8.25;5.75;;;;;;;;5035038;28;8825;-72
2024/02/11 16:46:34;;;;;;;;;6.50;5.00;;;;;;;;5047460;28;11384;-69
2024/02/11 16:49:00;;;;;;;;;11.00;8.50;;;;;;;;5046891;28;11560;-70
2024/02/11 16:51:26;;;;;;;;;9.00;7.00;;;;;;;;5047324;28;8798;-71
2024/02/11 16:53:51;;;;;;;;;4.00;4.00;;;;;;;;5045150;28;11433;-70
2024/02/11 16:56:17;;;;;;;;;6.00;3.50;;;;;;;;5047353;28;8793;-72
2024/02/11 16:58:43;;;;;;;;;9.00;5.50;;;;;;;;5042541;28;8836;-74
2024/02/11 17:01:10;;;;;;;;;4.00;3.25;;;;;;;;5027003;28;8831;-72
2024/02/11 17:03:36;;;;;;;;;8.75;6.25;;;;;;;;4980953;28;12114;-72
2024/02/11 17:06:01;;;;;;;;;8.25;5.00;;;;;;;;5026965;28;11463;-77
2024/02/11 17:08:26;;;;;;;;;8.00;7.00;;;;;;;;5025726;28;8836;-73
2024/02/11 17:10:51;;;;;;;;;5.00;5.00;;;;;;;;5024697;28;8792;-72
2024/02/11 17:13:17;;;;;;;;;22.50;20.00;;;;;;;;5026384;28;8885;-72
2024/02/11 17:15:42;;;;;;;;;22.50;18.25;;;;;;;;5026858;28;8816;-77
2024/02/11 17:18:07;;;;;;;;;21.25;19.25;;;;;;;;5027119;28;8795;-74
2024/02/11 17:20:32;;;;;;;;;12.75;10.25;;;;;;;;5026660;28;8816;-76
2024/02/11 17:22:58;;;;;;;;;15.50;12.00;;;;;;;;5022744;28;8925;-73
2024/02/11 17:25:24;;;;;;;;;37.25;30.00;;;;;;;;5026027;28;8804;-74
2024/02/11 17:27:50;;;;;;;;;20.25;17.00;;;;;;;;5025835;28;8807;-70
2024/02/11 17:30:16;;;;;;;;;37.75;27.75;;;;;;;;5025213;28;11485;-70
2024/02/11 17:32:41;;;;;;;;;50.25;38.50;;;;;;;;5026613;28;8908;-73
2024/02/11 17:35:16;;;;;;;;;19.50;17.50;;;;;;;;5018082;28;11671;-73
2024/02/11 17:37:41;;;;;;;;;18.50;14.00;;;;;;;;5011568;28;8843;-73
2024/02/11 17:40:10;;;;;;;;;14.25;13.25;;;;;;;;5013051;28;12318;-74
2024/02/11 17:42:35;;;;;;;;;23.50;18.75;;;;;;;;5012844;28;8827;-73
2024/02/11 17:45:00;;;;;;;;;37.25;31.75;;;;;;;;5012939;28;11581;-72
2024/02/11 17:47:26;;;;;;;;;30.50;25.00;;;;;;;;5011323;28;9510;-73
2024/02/11 17:49:52;;;;;;;;;5.50;2.00;;;;;;;;5012915;28;8886;-72
2024/02/11 17:52:20;;;;;;;;;16.75;11.75;;;;;;;;5012619;28;8823;-73
2024/02/11 17:54:45;;;;;;;;;14.00;14.00;;;;;;;;5012808;28;8927;-71
2024/02/11 17:57:10;;;;;;;;;13.25;13.00;;;;;;;;5010966;28;11420;-73
2024/02/11 17:59:37;;;;;;;;;14.75;12.00;;;;;;;;5012702;28;8792;-74
2024/02/11 18:02:03;;;;;;;;;14.75;12.00;;;;;;;;5011473;28;8808;-73
2024/02/11 18:04:30;;;;;;;;;11.75;9.75;;;;;;;;5012512;28;11466;-75
2024/02/11 18:06:55;;;;;;;;;16.50;13.00;;;;;;;;5010966;28;11434;-73
2024/02/11 18:09:21;;;;;;;;;38.75;35.50;;;;;;;;5012269;28;11505;-72
2024/02/11 18:11:47;;;;;;;;;58.00;48.00;;;;;;;;5012646;28;8902;-73
2024/02/11 18:14:12;;;;;;;;;15.50;15.00;;;;;;;;5012121;28;8863;-73
2024/02/11 18:16:37;;;;;;;;;14.75;14.00;;;;;;;;5010232;28;8855;-72
2024/02/11 18:19:05;;;;;;;;;15.50;14.00;;;;;;;;5012679;28;8855;-74
2024/02/11 18:21:30;;;;;;;;;14.25;12.00;;;;;;;;5012512;28;8823;-75
2024/02/11 18:23:56;;;;;;;;;11.00;9.25;;;;;;;;4996537;28;11527;-77
2024/02/11 18:26:21;;;;;;;;;14.50;10.00;;;;;;;;4991176;28;8904;-74
2024/02/11 18:28:46;;;;;;;;;13.25;11.75;;;;;;;;4993468;28;8925;-74
2024/02/11 18:31:12;;;;;;;;;20.00;15.00;;;;;;;;4991585;28;8811;-74
2024/02/11 18:33:39;;;;;;;;;13.25;9.75;;;;;;;;4992769;28;8873;-75
2024/02/11 18:36:04;;;;;;;;;10.75;10.25;;;;;;;;4991122;28;11603;-74
2024/02/11 18:38:31;;;;;;;;;9.50;8.00;;;;;;;;4992761;28;11476;-76
2024/02/11 18:40:57;;;;;;;;;16.25;13.50;;;;;;;;4992832;28;8901;-77
2024/02/11 18:43:22;;;;;;;;;13.25;13.00;;;;;;;;4992380;28;11518;-78
2024/02/11 18:45:47;;;;;;;;;15.00;13.50;;;;;;;;4988455;28;8842;-75
2024/02/11 18:48:12;;;;;;;;;13.50;12.75;;;;;;;;4990864;28;8802;-76
2024/02/11 18:50:38;;;;;;;;;13.50;12.00;;;;;;;;4991970;28;8818;-74
2024/02/11 18:53:04;;;;;;;;;12.50;10.75;;;;;;;;4989784;28;8976;-73
2024/02/11 18:55:30;;;;;;;;;15.25;15.00;;;;;;;;4991887;28;8786;-74
2024/02/11 18:57:55;;;;;;;;;18.50;16.50;;;;;;;;4989992;28;8909;-75
2024/02/11 19:00:21;;;;;;;;;42.50;33.75;;;;;;;;4991724;28;11604;-75
2024/02/11 19:02:46;;;;;;;;;9.25;8.50;;;;;;;;4991424;28;8856;-73
2024/02/11 19:05:12;;;;;;;;;15.00;11.50;;;;;;;;4991646;28;8822;-73
2024/02/11 19:07:37;;;;;;;;;45.75;37.50;;;;;;;;4989741;28;8807;-75
2024/02/11 19:10:04;;;;;;;;;13.75;13.00;;;;;;;;4990953;28;8806;-73
2024/02/11 19:12:29;;;;;;;;;11.00;11.00;;;;;;;;4988841;28;9459;-76
2024/02/11 19:14:54;;;;;;;;;17.00;12.50;;;;;;;;4991151;28;11504;-76
2024/02/11 19:17:21;;;;;;;;;16.25;11.25;;;;;;;;4988388;28;8814;-74
2024/02/11 19:19:47;;;;;;;;;13.25;11.50;;;;;;;;4991574;28;8787;-74
2024/02/11 19:22:13;;;;;;;;;14.50;13.50;;;;;;;;4992434;28;11485;-75
2024/02/11 19:24:40;;;;;;;;;12.75;9.00;;;;;;;;5030522;28;11431;-75
2024/02/11 19:27:06;;;;;;;;;9.50;8.00;;;;;;;;5029038;28;8916;-80
2024/02/11 19:29:33;;;;;;;;;9.25;9.00;;;;;;;;5030888;28;11409;-76
2024/02/11 19:31:58;;;;;;;;;10.00;8.00;;;;;;;;5013441;28;11101;-77
2024/02/11 19:34:23;;;;;;;;;65.50;48.75;;;;;;;;5030646;28;11196;-76
2024/02/11 19:36:49;;;;;;;;;72.25;54.75;;;;;;;;5028926;28;8790;-76
2024/02/11 19:39:14;;;;;;;;;17.00;14.00;;;;;;;;5031069;28;8801;-76
2024/02/11 19:41:42;;;;;;;;;13.25;12.75;;;;;;;;5030772;28;8864;-76
2024/02/11 19:44:09;;;;;;;;;13.25;10.25;;;;;;;;5030442;28;11401;-75
2024/02/11 19:46:35;;;;;;;;;19.50;14.50;;;;;;;;5028960;28;11518;-77
2024/02/11 19:49:01;;;;;;;;;15.25;12.50;;;;;;;;5011627;28;11520;-77
2024/02/11 19:51:28;;;;;;;;;12.00;12.00;;;;;;;;5028282;28;8802;-81
2024/02/11 19:53:53;;;;;;;;;9.50;8.00;;;;;;;;5029476;28;8814;-82
2024/02/11 19:56:18;;;;;;;;;14.25;12.75;;;;;;;;5010736;28;11398;-81
2024/02/11 19:58:44;;;;;;;;;10.50;8.00;;;;;;;;5030633;28;8777;-68
2024/02/11 20:01:09;;;;;;;;;10.00;10.00;;;;;;;;5030618;28;8896;-67
2024/02/11 20:03:35;;;;;;;;;15.00;12.00;;;;;;;;5012281;28;8873;-71
2024/02/11 20:06:00;;;;;;;;;16.75;14.25;;;;;;;;5028777;28;8782;-69
2024/02/11 20:08:26;;;;;;;;;11.25;10.00;;;;;;;;5030652;28;8786;-69
2024/02/11 20:10:51;;;;;;;;;18.50;16.50;;;;;;;;5030277;28;8789;-70
2024/02/11 20:13:16;;;;;;;;;11.50;11.50;;;;;;;;5030075;28;8818;-74
2024/02/11 20:15:45;;;;;;;;;10.00;10.00;;;;;;;;5030857;28;9508;-70
2024/02/11 20:18:11;;;;;;;;;19.00;13.50;;;;;;;;5029941;28;8805;-73
2024/02/11 20:20:39;;;;;;;;;13.25;11.25;;;;;;;;5030253;28;11367;-69
2024/02/11 20:23:05;;;;;;;;;12.50;11.50;;;;;;;;5029080;28;12132;-72
2024/02/11 20:25:34;;;;;;;;;5.00;5.00;;;;;;;;5027411;28;11409;-72
2024/02/11 20:28:03;;;;;;;;;15.00;9.50;;;;;;;;5027108;28;8836;-72
2024/02/11 20:30:29;;;;;;;;;58.25;45.00;;;;;;;;5029327;28;11470;-72
2024/02/11 20:32:54;;;;;;;;;24.50;24.25;;;;;;;;5029316;28;11490;-74
2024/02/11 20:35:23;;;;;;;;;19.75;16.75;;;;;;;;5027254;28;11472;-74
2024/02/11 20:37:49;;;;;;;;;20.25;15.00;;;;;;;;5003966;28;8820;-74
2024/02/11 20:40:16;;;;;;;;;19.75;15.75;;;;;;;;5029125;28;11488;-72
2024/02/11 20:42:46;;;;;;;;;12.25;9.75;;;;;;;;5028899;28;11543;-72
2024/02/11 20:45:13;;;;;;;;;7.00;6.00;;;;;;;;5027126;28;11116;-73
2024/02/11 20:47:39;;;;;;;;;8.25;4.75;;;;;;;;5011409;28;11442;-72
2024/02/11 20:50:06;;;;;;;;;4.75;4.75;;;;;;;;5029156;28;11327;-73
2024/02/11 20:52:32;;;;;;;;;8.00;8.00;;;;;;;;5029219;28;9512;-72
2024/02/11 20:54:57;;;;;;;;;7.00;5.00;;;;;;;;5027117;28;11460;-72
2024/02/11 20:57:23;;;;;;;;;6.00;5.00;;;;;;;;5029202;28;11147;-72
2024/02/11 20:59:50;;;;;;;;;4.00;3.50;;;;;;;;5028899;28;8782;-71
2024/02/11 21:02:17;;;;;;;;;6.00;6.00;;;;;;;;5028996;28;9862;-72
2024/02/11 21:04:43;;;;;;;;;5.25;3.75;;;;;;;;5027063;28;11115;-71
2024/02/11 21:07:08;;;;;;;;;5.00;4.00;;;;;;;;5028906;28;11099;-72
2024/02/11 21:09:33;;;;;;;;;9.00;5.25;;;;;;;;5029928;28;9516;-75
2024/02/11 21:11:58;;;;;;;;;3.25;3.25;;;;;;;;5032715;28;8802;-72
2024/02/11 21:14:26;;;;;;;;;5.00;5.00;;;;;;;;5030733;28;8826;-69
2024/02/11 21:16:51;;;;;;;;;8.75;6.25;;;;;;;;5033051;28;8786;-71
2024/02/11 21:19:19;;;;;;;;;4.50;4.50;;;;;;;;5014548;28;12154;-71
2024/02/11 21:21:45;;;;;;;;;5.50;4.50;;;;;;;;5014770;28;8840;-69
2024/02/11 21:24:10;;;;;;;;;5.25;3.75;;;;;;;;5030176;28;13579;-70
2024/02/11 21:26:36;;;;;;;;;4.50;4.00;;;;;;;;5032288;28;8892;-70
2024/02/11 21:29:02;;;;;;;;;4.00;4.00;;;;;;;;5032668;28;8832;-70
2024/02/11 21:31:28;;;;;;;;;5.00;4.25;;;;;;;;5032573;28;11344;-71
2024/02/11 21:33:54;;;;;;;;;5.00;5.00;;;;;;;;5032174;28;11407;-70
2024/02/11 21:36:19;;;;;;;;;7.00;5.25;;;;;;;;5032767;28;8782;-74
2024/02/11 21:38:45;;;;;;;;;9.75;6.00;;;;;;;;5009869;28;8816;-75
2024/02/11 21:41:10;;;;;;;;;8.50;6.00;;;;;;;;5015003;28;8836;-71
2024/02/11 21:43:36;;;;;;;;;5.25;5.00;;;;;;;;5009561;28;8818;-71
2024/02/11 21:46:02;;;;;;;;;5.00;5.00;;;;;;;;5032774;28;8809;-71
2024/02/11 21:48:28;;;;;;;;;6.25;5.00;;;;;;;;5032720;28;8849;-72
2024/02/11 21:50:58;;;;;;;;;5.00;5.00;;;;;;;;5032397;28;8801;-71
2024/02/11 21:53:23;;;;;;;;;5.00;4.75;;;;;;;;5032798;28;8794;-71
2024/02/11 21:55:48;;;;;;;;;8.00;5.00;;;;;;;;5009248;28;11391;-70
2024/02/11 21:58:15;;;;;;;;;5.50;4.50;;;;;;;;5032130;28;9851;-70
2024/02/11 22:00:40;;;;;;;;;15.00;7.50;;;;;;;;5014405;28;8818;-70
2024/02/11 22:03:05;;;;;;;;;6.25;5.75;;;;;;;;5032032;28;11384;-70
2024/02/11 22:05:32;;;;;;;;;7.75;6.50;;;;;;;;5031860;28;8820;-70
2024/02/11 22:07:58;;;;;;;;;9.75;8.25;;;;;;;;5030482;28;8848;-70
2024/02/11 22:10:23;;;;;;;;;8.25;8.25;;;;;;;;5029000;28;11348;-70
2024/02/11 22:12:48;;;;;;;;;8.75;8.00;;;;;;;;5032281;28;8810;-70
2024/02/11 22:15:14;;;;;;;;;9.00;5.25;;;;;;;;5031226;28;9521;-70
2024/02/11 22:17:40;;;;;;;;;7.00;6.50;;;;;;;;5032277;28;8803;-71
2024/02/11 22:20:09;;;;;;;;;8.50;6.75;;;;;;;;5029095;28;8791;-71
2024/02/11 22:22:35;;;;;;;;;11.50;5.00;;;;;;;;5012847;28;12340;-71
2024/02/11 22:25:01;;;;;;;;;10.75;8.75;;;;;;;;5032265;28;11348;-71
2024/02/11 22:27:28;;;;;;;;;8.25;8.00;;;;;;;;5032596;28;11450;-71
2024/02/11 22:29:54;;;;;;;;;9.00;6.50;;;;;;;;5032525;28;8794;-71
2024/02/11 22:32:20;;;;;;;;;9.00;8.25;;;;;;;;5032343;28;11359;-71
2024/02/11 22:34:45;;;;;;;;;12.00;12.00;;;;;;;;5032340;28;8782;-71
2024/02/11 22:37:12;;;;;;;;;15.50;9.00;;;;;;;;5032044;28;9535;-72
2024/02/11 22:39:38;;;;;;;;;9.75;8.50;;;;;;;;5024959;28;8814;-71
2024/02/11 22:42:03;;;;;;;;;13.00;11.50;;;;;;;;5015072;28;11376;-71
2024/02/11 22:44:29;;;;;;;;;14.50;12.25;;;;;;;;5014092;28;8826;-70
2024/02/11 22:46:54;;;;;;;;;12.25;8.75;;;;;;;;5019447;28;9741;-70
2024/02/11 22:49:20;;;;;;;;;14.25;8.25;;;;;;;;5025414;28;9615;-70
2024/02/11 22:51:46;;;;;;;;;5.00;5.00;;;;;;;;5013375;28;8840;-70
2024/02/11 22:54:14;;;;;;;;;8.00;5.00;;;;;;;;5031447;28;8832;-69
2024/02/11 22:56:40;;;;;;;;;6.00;4.00;;;;;;;;5032009;28;8790;-70
2024/02/11 22:59:06;;;;;;;;;4.00;4.00;;;;;;;;5031845;28;11360;-72
2024/02/11 23:01:31;;;;;;;;;4.00;2.00;;;;;;;;5031511;28;11347;-73
2024/02/11 23:03:57;;;;;;;;;5.00;1.00;;;;;;;;5032226;28;8818;-72
2024/02/11 23:06:23;;;;;;;;;5.00;3.00;;;;;;;;5031715;28;8778;-72
2024/02/11 23:08:49;;;;;;;;;5.50;4.00;;;;;;;;5013818;28;11356;-72
2024/02/11 23:11:19;;;;;;;;;4.00;2.50;;;;;;;;5031680;28;8790;-71
2024/02/11 23:13:45;;;;;;;;;9.75;4.50;;;;;;;;5031636;28;8778;-72
2024/02/11 23:16:11;;;;;;;;;4.00;2.00;;;;;;;;5031258;28;11451;-72
2024/02/11 23:18:36;;;;;;;;;4.00;2.00;;;;;;;;5031358;28;11446;-73
2024/02/11 23:21:01;;;;;;;;;3.00;2.00;;;;;;;;5031323;28;8920;-73
2024/02/11 23:23:30;;;;;;;;;3.50;2.00;;;;;;;;5031263;28;8910;-72
2024/02/11 23:25:55;;;;;;;;;4.25;2.00;;;;;;;;5031461;28;8782;-72
2024/02/11 23:28:21;;;;;;;;;2.00;2.00;;;;;;;;5031161;28;11349;-72
2024/02/11 23:30:46;;;;;;;;;1.00;1.00;;;;;;;;5031216;28;8782;-72
2024/02/11 23:33:11;;;;;;;;;1.50;1.50;;;;;;;;5030806;28;8928;-72
2024/02/11 23:35:40;;;;;;;;;1.50;1.50;;;;;;;;5031473;28;8790;-71
2024/02/11 23:38:06;;;;;;;;;1.50;1.00;;;;;;;;5031241;28;8771;-72
2024/02/11 23:40:32;;;;;;;;;1.00;1.00;;;;;;;;5030972;28;11420;-72
2024/02/11 23:42:57;;;;;;;;;0.00;0.00;;;;;;;;5030983;28;12114;-72
2024/02/11 23:45:23;;;;;;;;;0.50;0.50;;;;;;;;5030997;28;8794;-72
2024/02/11 23:47:48;;;;;;;;;0.00;0.00;;;;;;;;5031144;28;8766;-72
